Terminal Aerodrome Forecast
Issued by NWS

Home | Current Version | Previous Version | Text Only | Print | Product List | Glossary On
Versions: 1 2 3 4 5 6 7 8 9 10 11 12 13 14
299
FTUS45 KABQ 241120
TAFGUP
TAF
KGUP 241120Z 2412/2512 01004KT P6SM OVC100
     FM241800 15007KT P6SM VCSH BKN070
      TEMPO 2421/2501 VRB15G30KT 6SM -TSRA OVC040CB
     FM250100 20008KT P6SM VCSH BKN060=

USA.gov is the U.S. government's official web portal to all federal, state and local government web resources and services.